Cleverdale, New York
Current Conditions -  °F | °C
As of 4:53 AM on Thursday 23 Oct 2014 (Local Time) from KGFL Reporting Station
Overcast Overcast  
Wind Chill: 45°   Ceiling: 3000
Heat Index: 49°   Visibility: 10mi
Dew Point: 42°   Wind: 10mph
Humidity: 77%   Direction: 20°NNE
Pressure: 29.9"   Gusts: NA
Location:  43.48°N, 73.64°W
Report Text: KGFL 230853Z AUTO 02009KT 10SM OVC030 09/06 A2990 RMK AO2 RAE29 SLP129 P0001 60003 T00940056 56013
Loading
Personal Weather Stations






























Interactive Weather Map
Tropical Storm Tracking
New forecast layout! Learn more

10-Day Weather Forecast

Advertisements
Track Severe Weather on mobile